sensor_id;sensor_type;location;lat;lon;timestamp;P1;durP1;ratioP1;P2;durP2;ratioP2
2023;SDS011;1016;48.770;9.154;2022-12-18T00:00:57;56.50;;;32.85;;
2023;SDS011;1016;48.770;9.154;2022-12-18T00:03:23;51.70;;;30.70;;
2023;SDS011;1016;48.770;9.154;2022-12-18T00:05:49;55.57;;;33.53;;
2023;SDS011;1016;48.770;9.154;2022-12-18T00:08:15;53.10;;;32.53;;
2023;SDS011;1016;48.770;9.154;2022-12-18T00:10:42;53.67;;;31.90;;
2023;SDS011;1016;48.770;9.154;2022-12-18T00:13:08;53.42;;;31.70;;
2023;SDS011;1016;48.770;9.154;2022-12-18T00:15:34;52.40;;;30.55;;
2023;SDS011;1016;48.770;9.154;2022-12-18T00:18:00;54.92;;;32.13;;
2023;SDS011;1016;48.770;9.154;2022-12-18T00:20:25;53.30;;;32.37;;
2023;SDS011;1016;48.770;9.154;2022-12-18T00:22:51;53.70;;;32.57;;
2023;SDS011;1016;48.770;9.154;2022-12-18T00:25:17;54.40;;;32.05;;
2023;SDS011;1016;48.770;9.154;2022-12-18T00:27:43;54.63;;;31.55;;
2023;SDS011;1016;48.770;9.154;2022-12-18T00:30:09;52.50;;;31.10;;
2023;SDS011;1016;48.770;9.154;2022-12-18T00:32:35;54.05;;;31.00;;
2023;SDS011;1016;48.770;9.154;2022-12-18T00:35:00;54.20;;;32.23;;
2023;SDS011;1016;48.770;9.154;2022-12-18T00:37:26;54.40;;;32.70;;
2023;SDS011;1016;48.770;9.154;2022-12-18T00:39:51;53.28;;;31.85;;
2023;SDS011;1016;48.770;9.154;2022-12-18T00:42:17;53.70;;;32.53;;
2023;SDS011;1016;48.770;9.154;2022-12-18T00:45:01;52.25;;;30.20;;
2023;SDS011;1016;48.770;9.154;2022-12-18T00:47:26;55.03;;;32.53;;
2023;SDS011;1016;48.770;9.154;2022-12-18T00:49:52;53.93;;;31.73;;
2023;SDS011;1016;48.770;9.154;2022-12-18T00:52:17;54.10;;;31.30;;
2023;SDS011;1016;48.770;9.154;2022-12-18T00:54:43;53.10;;;31.60;;
2023;SDS011;1016;48.770;9.154;2022-12-18T00:57:08;51.63;;;31.33;;
2023;SDS011;1016;48.770;9.154;2022-12-18T00:59:33;51.28;;;30.00;;
2023;SDS011;1016;48.770;9.154;2022-12-18T01:01:59;52.90;;;31.80;;
2023;SDS011;1016;48.770;9.154;2022-12-18T01:04:24;52.87;;;30.20;;
2023;SDS011;1016;48.770;9.154;2022-12-18T01:06:50;52.55;;;30.48;;
2023;SDS011;1016;48.770;9.154;2022-12-18T01:09:15;51.83;;;29.47;;
2023;SDS011;1016;48.770;9.154;2022-12-18T01:11:41;52.60;;;31.53;;
2023;SDS011;1016;48.770;9.154;2022-12-18T01:14:06;52.90;;;30.75;;
2023;SDS011;1016;48.770;9.154;2022-12-18T01:16:32;52.77;;;30.90;;
2023;SDS011;1016;48.770;9.154;2022-12-18T01:18:57;51.80;;;30.53;;
2023;SDS011;1016;48.770;9.154;2022-12-18T01:21:23;53.22;;;30.10;;
2023;SDS011;1016;48.770;9.154;2022-12-18T01:23:55;53.55;;;30.63;;
2023;SDS011;1016;48.770;9.154;2022-12-18T01:26:21;53.22;;;29.92;;
2023;SDS011;1016;48.770;9.154;2022-12-18T01:28:48;49.75;;;29.73;;
2023;SDS011;1016;48.770;9.154;2022-12-18T01:33:52;51.67;;;29.80;;
2023;SDS011;1016;48.770;9.154;2022-12-18T01:36:20;53.80;;;30.52;;
2023;SDS011;1016;48.770;9.154;2022-12-18T01:38:45;52.85;;;30.45;;
2023;SDS011;1016;48.770;9.154;2022-12-18T01:41:12;50.83;;;30.42;;
2023;SDS011;1016;48.770;9.154;2022-12-18T01:43:49;51.70;;;30.55;;
2023;SDS011;1016;48.770;9.154;2022-12-18T01:46:17;53.75;;;30.95;;
2023;SDS011;1016;48.770;9.154;2022-12-18T01:48:45;52.38;;;29.60;;
2023;SDS011;1016;48.770;9.154;2022-12-18T01:51:13;52.40;;;30.40;;
2023;SDS011;1016;48.770;9.154;2022-12-18T01:53:40;51.33;;;29.90;;
2023;SDS011;1016;48.770;9.154;2022-12-18T01:56:07;51.33;;;30.45;;
2023;SDS011;1016;48.770;9.154;2022-12-18T02:01:17;50.28;;;29.42;;
2023;SDS011;1016;48.770;9.154;2022-12-18T02:03:45;51.88;;;29.30;;
2023;SDS011;1016;48.770;9.154;2022-12-18T02:09:15;51.47;;;29.17;;
2023;SDS011;1016;48.770;9.154;2022-12-18T02:11:53;49.17;;;29.50;;
2023;SDS011;1016;48.770;9.154;2022-12-18T02:17:16;50.75;;;28.92;;
2023;SDS011;1016;48.770;9.154;2022-12-18T02:22:29;50.67;;;29.27;;
2023;SDS011;1016;48.770;9.154;2022-12-18T02:28:16;47.60;;;26.90;;
2023;SDS011;1016;48.770;9.154;2022-12-18T02:30:45;47.58;;;26.90;;
2023;SDS011;1016;48.770;9.154;2022-12-18T02:33:14;47.03;;;26.10;;
2023;SDS011;1016;48.770;9.154;2022-12-18T02:35:40;48.67;;;27.10;;
2023;SDS011;1016;48.770;9.154;2022-12-18T02:38:08;47.83;;;26.60;;
2023;SDS011;1016;48.770;9.154;2022-12-18T02:40:34;47.03;;;26.23;;
2023;SDS011;1016;48.770;9.154;2022-12-18T02:43:08;47.20;;;27.20;;
2023;SDS011;1016;48.770;9.154;2022-12-18T02:45:35;48.77;;;26.87;;
2023;SDS011;1016;48.770;9.154;2022-12-18T02:48:00;49.17;;;27.10;;
2023;SDS011;1016;48.770;9.154;2022-12-18T02:50:30;50.78;;;27.60;;
2023;SDS011;1016;48.770;9.154;2022-12-18T02:55:58;47.40;;;26.33;;
2023;SDS011;1016;48.770;9.154;2022-12-18T02:58:36;48.88;;;27.38;;
2023;SDS011;1016;48.770;9.154;2022-12-18T03:06:58;47.47;;;26.60;;
2023;SDS011;1016;48.770;9.154;2022-12-18T03:09:29;47.10;;;26.92;;
2023;SDS011;1016;48.770;9.154;2022-12-18T03:12:02;48.15;;;25.58;;
2023;SDS011;1016;48.770;9.154;2022-12-18T03:15:10;44.20;;;24.60;;
2023;SDS011;1016;48.770;9.154;2022-12-18T03:17:56;44.05;;;24.70;;
2023;SDS011;1016;48.770;9.154;2022-12-18T03:20:26;46.38;;;25.73;;
2023;SDS011;1016;48.770;9.154;2022-12-18T03:22:57;45.07;;;24.03;;
2023;SDS011;1016;48.770;9.154;2022-12-18T03:25:29;43.65;;;24.23;;
2023;SDS011;1016;48.770;9.154;2022-12-18T03:27:56;44.55;;;24.25;;
2023;SDS011;1016;48.770;9.154;2022-12-18T03:30:26;43.30;;;24.15;;
2023;SDS011;1016;48.770;9.154;2022-12-18T03:33:02;44.05;;;24.80;;
2023;SDS011;1016;48.770;9.154;2022-12-18T03:35:37;44.40;;;24.50;;
2023;SDS011;1016;48.770;9.154;2022-12-18T03:38:05;48.03;;;25.90;;
2023;SDS011;1016;48.770;9.154;2022-12-18T03:40:35;45.45;;;25.73;;
2023;SDS011;1016;48.770;9.154;2022-12-18T03:46:29;45.92;;;25.65;;
2023;SDS011;1016;48.770;9.154;2022-12-18T03:49:40;47.70;;;25.30;;
2023;SDS011;1016;48.770;9.154;2022-12-18T03:52:11;45.65;;;24.20;;
2023;SDS011;1016;48.770;9.154;2022-12-18T03:54:44;45.83;;;25.65;;
2023;SDS011;1016;48.770;9.154;2022-12-18T03:57:18;44.10;;;23.67;;
2023;SDS011;1016;48.770;9.154;2022-12-18T03:59:47;44.92;;;24.10;;
2023;SDS011;1016;48.770;9.154;2022-12-18T04:02:15;44.42;;;24.60;;
2023;SDS011;1016;48.770;9.154;2022-12-18T04:04:42;42.92;;;23.15;;
2023;SDS011;1016;48.770;9.154;2022-12-18T04:07:09;42.05;;;23.20;;
2023;SDS011;1016;48.770;9.154;2022-12-18T04:09:36;44.10;;;23.83;;
2023;SDS011;1016;48.770;9.154;2022-12-18T04:12:04;44.75;;;24.02;;
2023;SDS011;1016;48.770;9.154;2022-12-18T04:14:30;42.75;;;23.20;;
2023;SDS011;1016;48.770;9.154;2022-12-18T04:17:00;44.58;;;24.80;;
2023;SDS011;1016;48.770;9.154;2022-12-18T04:19:26;44.38;;;24.10;;
2023;SDS011;1016;48.770;9.154;2022-12-18T04:21:51;44.10;;;23.63;;
2023;SDS011;1016;48.770;9.154;2022-12-18T04:24:17;45.03;;;24.27;;
2023;SDS011;1016;48.770;9.154;2022-12-18T04:26:42;43.58;;;24.17;;
2023;SDS011;1016;48.770;9.154;2022-12-18T04:29:08;43.30;;;22.80;;
2023;SDS011;1016;48.770;9.154;2022-12-18T04:31:33;43.70;;;23.57;;
2023;SDS011;1016;48.770;9.154;2022-12-18T04:33:59;42.10;;;22.60;;
2023;SDS011;1016;48.770;9.154;2022-12-18T04:36:25;43.75;;;23.00;;
2023;SDS011;1016;48.770;9.154;2022-12-18T04:38:51;41.58;;;22.15;;
2023;SDS011;1016;48.770;9.154;2022-12-18T04:41:16;44.30;;;23.73;;
2023;SDS011;1016;48.770;9.154;2022-12-18T04:43:42;42.22;;;23.10;;
2023;SDS011;1016;48.770;9.154;2022-12-18T04:46:07;41.87;;;22.60;;
2023;SDS011;1016;48.770;9.154;2022-12-18T04:48:33;44.00;;;23.67;;
2023;SDS011;1016;48.770;9.154;2022-12-18T04:50:59;44.00;;;23.47;;
2023;SDS011;1016;48.770;9.154;2022-12-18T04:53:24;44.03;;;22.87;;
2023;SDS011;1016;48.770;9.154;2022-12-18T04:55:50;43.08;;;22.35;;
2023;SDS011;1016;48.770;9.154;2022-12-18T04:58:15;43.05;;;22.98;;
2023;SDS011;1016;48.770;9.154;2022-12-18T05:00:41;45.73;;;24.03;;
2023;SDS011;1016;48.770;9.154;2022-12-18T05:03:07;44.63;;;24.30;;
2023;SDS011;1016;48.770;9.154;2022-12-18T05:05:34;44.03;;;22.93;;
2023;SDS011;1016;48.770;9.154;2022-12-18T05:07:59;46.28;;;24.38;;
2023;SDS011;1016;48.770;9.154;2022-12-18T05:10:25;43.57;;;22.40;;
2023;SDS011;1016;48.770;9.154;2022-12-18T05:12:50;41.42;;;22.58;;
2023;SDS011;1016;48.770;9.154;2022-12-18T05:15:28;42.93;;;22.13;;
2023;SDS011;1016;48.770;9.154;2022-12-18T05:17:55;43.22;;;22.27;;
2023;SDS011;1016;48.770;9.154;2022-12-18T05:20:21;40.47;;;22.13;;
2023;SDS011;1016;48.770;9.154;2022-12-18T05:22:47;42.87;;;22.37;;
2023;SDS011;1016;48.770;9.154;2022-12-18T05:25:13;41.70;;;19.00;;
2023;SDS011;1016;48.770;9.154;2022-12-18T05:27:38;40.87;;;18.30;;
2023;SDS011;1016;48.770;9.154;2022-12-18T05:30:04;42.40;;;18.57;;
2023;SDS011;1016;48.770;9.154;2022-12-18T05:32:30;43.50;;;18.10;;
2023;SDS011;1016;48.770;9.154;2022-12-18T05:34:55;42.77;;;17.70;;
2023;SDS011;1016;48.770;9.154;2022-12-18T05:37:22;39.53;;;18.30;;
2023;SDS011;1016;48.770;9.154;2022-12-18T05:39:47;42.03;;;18.23;;
2023;SDS011;1016;48.770;9.154;2022-12-18T05:42:13;40.93;;;17.03;;
2023;SDS011;1016;48.770;9.154;2022-12-18T05:44:38;38.23;;;17.80;;
2023;SDS011;1016;48.770;9.154;2022-12-18T05:47:04;39.60;;;16.67;;
2023;SDS011;1016;48.770;9.154;2022-12-18T05:49:30;39.67;;;16.20;;
2023;SDS011;1016;48.770;9.154;2022-12-18T05:51:55;43.83;;;18.60;;
2023;SDS011;1016;48.770;9.154;2022-12-18T05:54:21;41.60;;;17.07;;
2023;SDS011;1016;48.770;9.154;2022-12-18T05:56:46;40.70;;;17.70;;
2023;SDS011;1016;48.770;9.154;2022-12-18T05:59:12;41.03;;;17.20;;
2023;SDS011;1016;48.770;9.154;2022-12-18T06:01:37;38.87;;;17.93;;
2023;SDS011;1016;48.770;9.154;2022-12-18T06:04:03;43.13;;;17.63;;
2023;SDS011;1016;48.770;9.154;2022-12-18T06:06:28;44.67;;;18.03;;
2023;SDS011;1016;48.770;9.154;2022-12-18T06:08:54;42.97;;;16.60;;
2023;SDS011;1016;48.770;9.154;2022-12-18T06:11:22;40.63;;;17.20;;
2023;SDS011;1016;48.770;9.154;2022-12-18T06:13:49;38.60;;;15.53;;
2023;SDS011;1016;48.770;9.154;2022-12-18T06:16:16;41.23;;;16.53;;
2023;SDS011;1016;48.770;9.154;2022-12-18T06:18:41;39.40;;;16.00;;
2023;SDS011;1016;48.770;9.154;2022-12-18T06:21:07;39.87;;;16.63;;
2023;SDS011;1016;48.770;9.154;2022-12-18T06:23:32;38.27;;;15.67;;
2023;SDS011;1016;48.770;9.154;2022-12-18T06:25:58;42.40;;;17.30;;
2023;SDS011;1016;48.770;9.154;2022-12-18T06:28:23;41.80;;;18.00;;
2023;SDS011;1016;48.770;9.154;2022-12-18T06:30:49;37.47;;;16.40;;
2023;SDS011;1016;48.770;9.154;2022-12-18T06:33:15;39.33;;;15.83;;
2023;SDS011;1016;48.770;9.154;2022-12-18T06:35:41;41.20;;;16.33;;
2023;SDS011;1016;48.770;9.154;2022-12-18T06:38:07;37.10;;;15.90;;
2023;SDS011;1016;48.770;9.154;2022-12-18T06:40:33;35.50;;;14.90;;
2023;SDS011;1016;48.770;9.154;2022-12-18T06:42:58;41.17;;;16.80;;
2023;SDS011;1016;48.770;9.154;2022-12-18T06:45:24;38.40;;;16.00;;
2023;SDS011;1016;48.770;9.154;2022-12-18T06:47:50;38.87;;;16.27;;
2023;SDS011;1016;48.770;9.154;2022-12-18T06:50:16;42.17;;;18.13;;
2023;SDS011;1016;48.770;9.154;2022-12-18T06:52:41;39.27;;;15.70;;
2023;SDS011;1016;48.770;9.154;2022-12-18T06:55:08;37.40;;;15.80;;
2023;SDS011;1016;48.770;9.154;2022-12-18T06:57:35;37.63;;;15.40;;
2023;SDS011;1016;48.770;9.154;2022-12-18T07:00:02;42.37;;;16.47;;
2023;SDS011;1016;48.770;9.154;2022-12-18T07:02:29;39.03;;;16.27;;
2023;SDS011;1016;48.770;9.154;2022-12-18T07:04:54;38.37;;;16.53;;
2023;SDS011;1016;48.770;9.154;2022-12-18T07:07:20;38.50;;;15.43;;
2023;SDS011;1016;48.770;9.154;2022-12-18T07:09:46;42.10;;;16.67;;
2023;SDS011;1016;48.770;9.154;2022-12-18T07:12:11;38.60;;;16.93;;
2023;SDS011;1016;48.770;9.154;2022-12-18T07:14:37;39.43;;;16.57;;
2023;SDS011;1016;48.770;9.154;2022-12-18T07:17:02;36.80;;;15.47;;
2023;SDS011;1016;48.770;9.154;2022-12-18T07:19:28;38.57;;;15.77;;
2023;SDS011;1016;48.770;9.154;2022-12-18T07:21:54;38.77;;;16.50;;
2023;SDS011;1016;48.770;9.154;2022-12-18T07:24:19;38.10;;;16.10;;
2023;SDS011;1016;48.770;9.154;2022-12-18T07:26:45;38.00;;;15.40;;
2023;SDS011;1016;48.770;9.154;2022-12-18T07:29:11;37.23;;;15.17;;
2023;SDS011;1016;48.770;9.154;2022-12-18T07:31:37;42.60;;;16.90;;
2023;SDS011;1016;48.770;9.154;2022-12-18T07:34:02;42.00;;;16.93;;
2023;SDS011;1016;48.770;9.154;2022-12-18T07:36:28;41.70;;;17.10;;
2023;SDS011;1016;48.770;9.154;2022-12-18T07:38:53;44.53;;;17.93;;
2023;SDS011;1016;48.770;9.154;2022-12-18T07:41:19;40.97;;;16.77;;
2023;SDS011;1016;48.770;9.154;2022-12-18T07:43:45;38.93;;;15.87;;
2023;SDS011;1016;48.770;9.154;2022-12-18T07:46:12;40.40;;;16.87;;
2023;SDS011;1016;48.770;9.154;2022-12-18T07:48:39;38.17;;;15.70;;
2023;SDS011;1016;48.770;9.154;2022-12-18T07:51:08;42.03;;;17.10;;
2023;SDS011;1016;48.770;9.154;2022-12-18T07:53:37;40.37;;;15.93;;
2023;SDS011;1016;48.770;9.154;2022-12-18T07:56:04;37.53;;;15.00;;
2023;SDS011;1016;48.770;9.154;2022-12-18T07:58:32;39.63;;;15.80;;
2023;SDS011;1016;48.770;9.154;2022-12-18T08:01:05;39.83;;;16.27;;
2023;SDS011;1016;48.770;9.154;2022-12-18T08:03:32;42.97;;;18.47;;
2023;SDS011;1016;48.770;9.154;2022-12-18T08:05:58;38.93;;;16.43;;
2023;SDS011;1016;48.770;9.154;2022-12-18T08:08:25;42.57;;;17.83;;
2023;SDS011;1016;48.770;9.154;2022-12-18T08:10:50;39.10;;;16.27;;
2023;SDS011;1016;48.770;9.154;2022-12-18T08:13:16;39.87;;;16.50;;
2023;SDS011;1016;48.770;9.154;2022-12-18T08:15:41;37.37;;;15.67;;
2023;SDS011;1016;48.770;9.154;2022-12-18T08:18:06;40.37;;;16.10;;
2023;SDS011;1016;48.770;9.154;2022-12-18T08:20:32;39.40;;;16.50;;
2023;SDS011;1016;48.770;9.154;2022-12-18T08:22:57;42.60;;;18.67;;
2023;SDS011;1016;48.770;9.154;2022-12-18T08:25:23;38.13;;;16.60;;
2023;SDS011;1016;48.770;9.154;2022-12-18T08:27:48;40.17;;;17.40;;
2023;SDS011;1016;48.770;9.154;2022-12-18T08:30:14;40.57;;;16.40;;
2023;SDS011;1016;48.770;9.154;2022-12-18T08:32:39;38.77;;;17.30;;
2023;SDS011;1016;48.770;9.154;2022-12-18T08:35:05;38.17;;;16.03;;
2023;SDS011;1016;48.770;9.154;2022-12-18T08:37:31;39.37;;;16.33;;
2023;SDS011;1016;48.770;9.154;2022-12-18T08:39:56;39.63;;;15.83;;
2023;SDS011;1016;48.770;9.154;2022-12-18T08:42:22;46.30;;;16.30;;
2023;SDS011;1016;48.770;9.154;2022-12-18T08:45:06;42.77;;;17.83;;
2023;SDS011;1016;48.770;9.154;2022-12-18T08:47:32;38.73;;;16.40;;
2023;SDS011;1016;48.770;9.154;2022-12-18T08:49:57;38.77;;;16.33;;
2023;SDS011;1016;48.770;9.154;2022-12-18T08:52:23;40.03;;;17.20;;
2023;SDS011;1016;48.770;9.154;2022-12-18T08:54:48;42.80;;;17.70;;
2023;SDS011;1016;48.770;9.154;2022-12-18T08:57:14;50.70;;;18.63;;
2023;SDS011;1016;48.770;9.154;2022-12-18T08:59:41;41.13;;;17.97;;
2023;SDS011;1016;48.770;9.154;2022-12-18T09:02:07;45.10;;;19.97;;
2023;SDS011;1016;48.770;9.154;2022-12-18T09:04:35;47.53;;;18.57;;
2023;SDS011;1016;48.770;9.154;2022-12-18T09:07:00;43.23;;;18.40;;
2023;SDS011;1016;48.770;9.154;2022-12-18T09:09:25;44.27;;;19.10;;
2023;SDS011;1016;48.770;9.154;2022-12-18T09:11:51;49.40;;;19.53;;
2023;SDS011;1016;48.770;9.154;2022-12-18T09:14:17;42.33;;;18.10;;
2023;SDS011;1016;48.770;9.154;2022-12-18T09:16:42;41.07;;;18.00;;
2023;SDS011;1016;48.770;9.154;2022-12-18T09:19:08;43.17;;;18.00;;
2023;SDS011;1016;48.770;9.154;2022-12-18T09:21:34;44.57;;;20.10;;
2023;SDS011;1016;48.770;9.154;2022-12-18T09:24:06;42.07;;;18.60;;
2023;SDS011;1016;48.770;9.154;2022-12-18T09:26:36;42.27;;;17.90;;
2023;SDS011;1016;48.770;9.154;2022-12-18T09:29:02;42.70;;;17.70;;
2023;SDS011;1016;48.770;9.154;2022-12-18T09:31:27;43.57;;;18.97;;
2023;SDS011;1016;48.770;9.154;2022-12-18T09:33:54;46.63;;;19.67;;
2023;SDS011;1016;48.770;9.154;2022-12-18T09:36:21;44.60;;;19.97;;
2023;SDS011;1016;48.770;9.154;2022-12-18T09:38:46;46.03;;;19.27;;
2023;SDS011;1016;48.770;9.154;2022-12-18T09:44:16;43.13;;;18.60;;
2023;SDS011;1016;48.770;9.154;2022-12-18T09:47:03;56.70;;;19.90;;
2023;SDS011;1016;48.770;9.154;2022-12-18T09:49:40;40.10;;;18.10;;
2023;SDS011;1016;48.770;9.154;2022-12-18T09:54:41;46.30;;;19.13;;
2023;SDS011;1016;48.770;9.154;2022-12-18T09:57:28;49.13;;;20.93;;
2023;SDS011;1016;48.770;9.154;2022-12-18T09:59:59;44.27;;;20.47;;
2023;SDS011;1016;48.770;9.154;2022-12-18T10:02:35;43.07;;;19.40;;
2023;SDS011;1016;48.770;9.154;2022-12-18T10:05:11;42.63;;;18.93;;
2023;SDS011;1016;48.770;9.154;2022-12-18T10:10:30;42.30;;;18.80;;
2023;SDS011;1016;48.770;9.154;2022-12-18T10:15:47;44.13;;;18.87;;
2023;SDS011;1016;48.770;9.154;2022-12-18T10:18:32;40.97;;;17.00;;
2023;SDS011;1016;48.770;9.154;2022-12-18T10:21:03;42.20;;;17.30;;
2023;SDS011;1016;48.770;9.154;2022-12-18T10:23:43;40.47;;;17.67;;
2023;SDS011;1016;48.770;9.154;2022-12-18T10:26:22;42.90;;;17.57;;
2023;SDS011;1016;48.770;9.154;2022-12-18T10:28:48;42.17;;;17.80;;
2023;SDS011;1016;48.770;9.154;2022-12-18T10:31:17;42.13;;;18.73;;
2023;SDS011;1016;48.770;9.154;2022-12-18T10:33:46;41.80;;;18.03;;
2023;SDS011;1016;48.770;9.154;2022-12-18T10:36:12;42.50;;;19.00;;
2023;SDS011;1016;48.770;9.154;2022-12-18T10:38:38;41.57;;;18.33;;
2023;SDS011;1016;48.770;9.154;2022-12-18T10:41:05;42.77;;;18.47;;
2023;SDS011;1016;48.770;9.154;2022-12-18T10:43:43;43.70;;;19.80;;
2023;SDS011;1016;48.770;9.154;2022-12-18T10:48:36;47.47;;;19.50;;
2023;SDS011;1016;48.770;9.154;2022-12-18T10:51:05;42.30;;;18.70;;
2023;SDS011;1016;48.770;9.154;2022-12-18T10:53:32;43.90;;;19.17;;
2023;SDS011;1016;48.770;9.154;2022-12-18T10:56:00;48.80;;;20.57;;
2023;SDS011;1016;48.770;9.154;2022-12-18T10:58:28;44.53;;;19.00;;
2023;SDS011;1016;48.770;9.154;2022-12-18T11:03:46;46.13;;;20.97;;
2023;SDS011;1016;48.770;9.154;2022-12-18T11:06:32;42.87;;;19.23;;
2023;SDS011;1016;48.770;9.154;2022-12-18T11:11:26;44.00;;;19.57;;
2023;SDS011;1016;48.770;9.154;2022-12-18T11:14:05;43.80;;;19.63;;
2023;SDS011;1016;48.770;9.154;2022-12-18T11:16:46;45.10;;;19.50;;
2023;SDS011;1016;48.770;9.154;2022-12-18T11:19:17;45.33;;;19.47;;
2023;SDS011;1016;48.770;9.154;2022-12-18T11:21:47;46.17;;;18.33;;
2023;SDS011;1016;48.770;9.154;2022-12-18T11:24:25;46.97;;;19.57;;
2023;SDS011;1016;48.770;9.154;2022-12-18T11:26:52;44.30;;;18.63;;
2023;SDS011;1016;48.770;9.154;2022-12-18T11:29:19;44.17;;;19.73;;
2023;SDS011;1016;48.770;9.154;2022-12-18T11:31:51;41.37;;;18.97;;
2023;SDS011;1016;48.770;9.154;2022-12-18T11:34:45;44.37;;;19.73;;
2023;SDS011;1016;48.770;9.154;2022-12-18T11:37:15;41.93;;;19.30;;
2023;SDS011;1016;48.770;9.154;2022-12-18T11:39:49;43.60;;;19.70;;
2023;SDS011;1016;48.770;9.154;2022-12-18T11:42:24;45.93;;;19.63;;
2023;SDS011;1016;48.770;9.154;2022-12-18T11:47:49;43.20;;;18.83;;
2023;SDS011;1016;48.770;9.154;2022-12-18T11:50:23;43.73;;;19.17;;
2023;SDS011;1016;48.770;9.154;2022-12-18T11:52:51;44.70;;;18.97;;
2023;SDS011;1016;48.770;9.154;2022-12-18T11:55:35;43.10;;;18.80;;
2023;SDS011;1016;48.770;9.154;2022-12-18T11:58:17;43.20;;;18.60;;
2023;SDS011;1016;48.770;9.154;2022-12-18T12:04:01;44.53;;;18.47;;
2023;SDS011;1016;48.770;9.154;2022-12-18T12:09:42;44.60;;;18.77;;
2023;SDS011;1016;48.770;9.154;2022-12-18T12:12:38;44.33;;;17.90;;
2023;SDS011;1016;48.770;9.154;2022-12-18T12:15:29;41.33;;;18.20;;
2023;SDS011;1016;48.770;9.154;2022-12-18T12:18:17;43.07;;;18.23;;
2023;SDS011;1016;48.770;9.154;2022-12-18T12:21:03;44.10;;;19.57;;
2023;SDS011;1016;48.770;9.154;2022-12-18T12:24:00;44.60;;;19.27;;
2023;SDS011;1016;48.770;9.154;2022-12-18T12:26:45;42.20;;;18.67;;
2023;SDS011;1016;48.770;9.154;2022-12-18T12:35:15;45.30;;;18.50;;
2023;SDS011;1016;48.770;9.154;2022-12-18T12:40:37;39.80;;;16.70;;
2023;SDS011;1016;48.770;9.154;2022-12-18T12:45:53;42.67;;;19.27;;
2023;SDS011;1016;48.770;9.154;2022-12-18T12:51:10;42.23;;;17.10;;
2023;SDS011;1016;48.770;9.154;2022-12-18T12:53:41;39.70;;;17.33;;
2023;SDS011;1016;48.770;9.154;2022-12-18T12:56:06;42.83;;;17.23;;
2023;SDS011;1016;48.770;9.154;2022-12-18T13:04:23;42.60;;;17.30;;
2023;SDS011;1016;48.770;9.154;2022-12-18T13:15:41;41.30;;;17.37;;
2023;SDS011;1016;48.770;9.154;2022-12-18T13:18:27;45.37;;;17.60;;
2023;SDS011;1016;48.770;9.154;2022-12-18T13:23:23;46.80;;;18.10;;
2023;SDS011;1016;48.770;9.154;2022-12-18T13:25:57;43.60;;;18.57;;
2023;SDS011;1016;48.770;9.154;2022-12-18T13:32:00;46.97;;;18.33;;
2023;SDS011;1016;48.770;9.154;2022-12-18T13:34:14;46.47;;;19.00;;
2023;SDS011;1016;48.770;9.154;2022-12-18T13:36:43;41.93;;;19.27;;
2023;SDS011;1016;48.770;9.154;2022-12-18T13:41:38;42.50;;;18.10;;
2023;SDS011;1016;48.770;9.154;2022-12-18T13:46:55;43.50;;;18.80;;
2023;SDS011;1016;48.770;9.154;2022-12-18T13:49:40;39.60;;;17.63;;
2023;SDS011;1016;48.770;9.154;2022-12-18T13:52:17;42.97;;;18.53;;
2023;SDS011;1016;48.770;9.154;2022-12-18T13:54:50;46.37;;;19.60;;
2023;SDS011;1016;48.770;9.154;2022-12-18T13:57:25;44.53;;;17.73;;
2023;SDS011;1016;48.770;9.154;2022-12-18T13:59:51;44.40;;;18.77;;
2023;SDS011;1016;48.770;9.154;2022-12-18T14:02:18;43.30;;;18.97;;
2023;SDS011;1016;48.770;9.154;2022-12-18T14:04:47;43.00;;;18.57;;
2023;SDS011;1016;48.770;9.154;2022-12-18T14:10:11;45.13;;;19.80;;
2023;SDS011;1016;48.770;9.154;2022-12-18T14:12:38;42.70;;;18.53;;
2023;SDS011;1016;48.770;9.154;2022-12-18T14:17:51;46.00;;;20.10;;
2023;SDS011;1016;48.770;9.154;2022-12-18T14:20:25;41.53;;;18.40;;
2023;SDS011;1016;48.770;9.154;2022-12-18T14:22:53;44.63;;;19.07;;
2023;SDS011;1016;48.770;9.154;2022-12-18T14:25:22;44.20;;;18.23;;
2023;SDS011;1016;48.770;9.154;2022-12-18T14:30:28;43.27;;;19.40;;
2023;SDS011;1016;48.770;9.154;2022-12-18T14:32:59;44.47;;;19.33;;
2023;SDS011;1016;48.770;9.154;2022-12-18T14:35:30;47.30;;;20.90;;
2023;SDS011;1016;48.770;9.154;2022-12-18T14:40:40;46.50;;;20.00;;
2023;SDS011;1016;48.770;9.154;2022-12-18T14:43:09;47.87;;;20.70;;
2023;SDS011;1016;48.770;9.154;2022-12-18T14:48:12;47.57;;;20.30;;
2023;SDS011;1016;48.770;9.154;2022-12-18T14:50:45;45.30;;;19.73;;
2023;SDS011;1016;48.770;9.154;2022-12-18T14:53:32;49.20;;;20.13;;
2023;SDS011;1016;48.770;9.154;2022-12-18T14:56:15;44.50;;;19.90;;
2023;SDS011;1016;48.770;9.154;2022-12-18T14:58:45;48.10;;;21.40;;
2023;SDS011;1016;48.770;9.154;2022-12-18T15:03:52;43.80;;;20.03;;
2023;SDS011;1016;48.770;9.154;2022-12-18T15:06:24;48.37;;;20.57;;
2023;SDS011;1016;48.770;9.154;2022-12-18T15:08:51;46.73;;;20.60;;
2023;SDS011;1016;48.770;9.154;2022-12-18T15:11:32;50.30;;;21.10;;
2023;SDS011;1016;48.770;9.154;2022-12-18T15:13:59;47.00;;;22.13;;
2023;SDS011;1016;48.770;9.154;2022-12-18T15:16:25;46.67;;;21.57;;
2023;SDS011;1016;48.770;9.154;2022-12-18T15:18:51;46.20;;;21.13;;
2023;SDS011;1016;48.770;9.154;2022-12-18T15:21:18;48.47;;;20.93;;
2023;SDS011;1016;48.770;9.154;2022-12-18T15:26:18;50.03;;;21.90;;
2023;SDS011;1016;48.770;9.154;2022-12-18T15:36:19;46.53;;;19.07;;
2023;SDS011;1016;48.770;9.154;2022-12-18T15:38:48;46.83;;;22.27;;
2023;SDS011;1016;48.770;9.154;2022-12-18T15:41:18;46.67;;;21.80;;
2023;SDS011;1016;48.770;9.154;2022-12-18T15:43:46;48.90;;;21.87;;
2023;SDS011;1016;48.770;9.154;2022-12-18T15:46:14;45.33;;;20.90;;
2023;SDS011;1016;48.770;9.154;2022-12-18T15:48:43;49.87;;;21.67;;
2023;SDS011;1016;48.770;9.154;2022-12-18T15:51:16;49.93;;;20.93;;
2023;SDS011;1016;48.770;9.154;2022-12-18T15:53:48;50.33;;;21.10;;
2023;SDS011;1016;48.770;9.154;2022-12-18T15:56:15;48.80;;;21.60;;
2023;SDS011;1016;48.770;9.154;2022-12-18T15:59:00;48.87;;;20.90;;
2023;SDS011;1016;48.770;9.154;2022-12-18T16:01:28;48.47;;;21.90;;
2023;SDS011;1016;48.770;9.154;2022-12-18T16:03:54;51.30;;;21.10;;
2023;SDS011;1016;48.770;9.154;2022-12-18T16:06:21;46.10;;;20.97;;
2023;SDS011;1016;48.770;9.154;2022-12-18T16:08:48;46.63;;;20.90;;
2023;SDS011;1016;48.770;9.154;2022-12-18T16:16:59;51.43;;;21.43;;
2023;SDS011;1016;48.770;9.154;2022-12-18T16:19:26;46.60;;;21.87;;
2023;SDS011;1016;48.770;9.154;2022-12-18T16:21:54;50.53;;;22.33;;
2023;SDS011;1016;48.770;9.154;2022-12-18T16:24:22;47.70;;;21.03;;
2023;SDS011;1016;48.770;9.154;2022-12-18T16:26:52;51.17;;;22.23;;
2023;SDS011;1016;48.770;9.154;2022-12-18T16:29:19;46.13;;;21.03;;
2023;SDS011;1016;48.770;9.154;2022-12-18T16:31:49;52.73;;;22.80;;
2023;SDS011;1016;48.770;9.154;2022-12-18T16:36:53;48.60;;;21.83;;
2023;SDS011;1016;48.770;9.154;2022-12-18T16:39:20;48.07;;;20.47;;
2023;SDS011;1016;48.770;9.154;2022-12-18T16:41:46;48.37;;;20.23;;
2023;SDS011;1016;48.770;9.154;2022-12-18T16:44:12;47.60;;;21.70;;
2023;SDS011;1016;48.770;9.154;2022-12-18T16:46:38;49.40;;;21.20;;
2023;SDS011;1016;48.770;9.154;2022-12-18T16:49:04;47.23;;;21.47;;
2023;SDS011;1016;48.770;9.154;2022-12-18T16:51:33;46.77;;;20.80;;
2023;SDS011;1016;48.770;9.154;2022-12-18T16:53:59;52.07;;;22.67;;
2023;SDS011;1016;48.770;9.154;2022-12-18T16:56:25;47.77;;;21.07;;
2023;SDS011;1016;48.770;9.154;2022-12-18T16:58:52;47.70;;;20.90;;
2023;SDS011;1016;48.770;9.154;2022-12-18T17:01:18;48.60;;;21.53;;
2023;SDS011;1016;48.770;9.154;2022-12-18T17:03:50;46.70;;;21.20;;
2023;SDS011;1016;48.770;9.154;2022-12-18T17:06:17;46.23;;;20.27;;
2023;SDS011;1016;48.770;9.154;2022-12-18T17:08:42;47.43;;;20.90;;
2023;SDS011;1016;48.770;9.154;2022-12-18T17:11:08;47.57;;;21.23;;